Time;durP1;ratioP1;P1;durP2;ratioP2;P2;SDS_P1;SDS_P2;PMS_P1;PMS_P2;Temp;Humidity;BMP_temperature;BMP_pressure;BME280_temperature;BME280_humidity;BME280_pressure;Samples;Min_cycle;Max_cycle;Signal;HPM_P1;HPM_P2
2022/02/24 00:00:19;;;;;;;11.23;3.63;;;;;;;7.93;62.66;99727.09;5004723;28;20113;-74
2022/02/24 00:02:45;;;;;;;12.88;3.05;;;;;;;7.97;62.82;99719.94;5002969;28;20050;-74
2022/02/24 00:05:12;;;;;;;10.60;3.70;;;;;;;7.97;62.69;99714.69;5002553;28;20046;-73
2022/02/24 00:07:38;;;;;;;9.98;2.78;;;;;;;7.96;62.35;99716.47;5003932;28;20049;-74
2022/02/24 00:10:05;;;;;;;12.85;4.82;;;;;;;8.00;61.88;99718.97;5002625;28;20038;-74
2022/02/24 00:12:31;;;;;;;11.32;3.88;;;;;;;7.99;62.20;99718.13;5003232;28;20033;-75
2022/02/24 00:14:57;;;;;;;7.88;2.95;;;;;;;8.02;62.64;99719.75;5002836;28;20044;-74
2022/02/24 00:17:23;;;;;;;11.38;3.67;;;;;;;8.04;62.12;99715.31;5002655;28;20125;-73
2022/02/24 00:19:48;;;;;;;7.68;3.08;;;;;;;8.05;62.36;99714.38;5003705;28;20053;-73
2022/02/24 00:22:13;;;;;;;13.30;2.88;;;;;;;8.03;62.14;99709.22;5003680;28;20042;-73
2022/02/24 00:24:39;;;;;;;9.85;3.95;;;;;;;8.03;61.47;99705.75;5003651;28;20050;-73
2022/02/24 00:27:04;;;;;;;11.55;4.15;;;;;;;8.05;61.71;99698.63;5001104;28;20495;-74
2022/02/24 00:29:30;;;;;;;9.93;3.53;;;;;;;8.07;61.15;99704.69;5018173;28;20056;-72
2022/02/24 00:31:55;;;;;;;9.98;3.10;;;;;;;8.06;61.28;99695.97;5020173;28;20044;-74
2022/02/24 00:34:23;;;;;;;10.07;3.15;;;;;;;8.10;61.38;99697.56;5023371;28;20082;-74
2022/02/24 00:36:50;;;;;;;11.75;3.28;;;;;;;8.08;61.34;99696.75;5022653;28;20037;-74
2022/02/24 00:39:16;;;;;;;8.85;3.47;;;;;;;8.10;60.80;99687.06;5023529;28;20148;-74
2022/02/24 00:41:41;;;;;;;12.13;4.10;;;;;;;8.14;60.97;99693.88;5020449;28;20499;-74
2022/02/24 00:44:06;;;;;;;6.95;2.72;;;;;;;8.16;61.11;99688.56;5006377;28;20472;-73
2022/02/24 00:46:31;;;;;;;13.50;3.30;;;;;;;8.16;60.50;99697.28;5008438;28;20458;-74
2022/02/24 00:48:57;;;;;;;10.38;3.13;;;;;;;8.15;60.35;99679.00;5010321;28;20030;-74
2022/02/24 00:51:22;;;;;;;7.82;3.47;;;;;;;8.15;60.41;99671.97;5009924;28;20041;-74
2022/02/24 00:53:47;;;;;;;7.03;2.92;;;;;;;8.19;60.13;99667.41;5009974;28;20032;-74
2022/02/24 00:56:13;;;;;;;10.73;3.70;;;;;;;8.20;60.44;99666.53;5009677;28;20042;-74
2022/02/24 00:58:38;;;;;;;16.63;3.47;;;;;;;8.18;60.25;99661.31;5009090;28;20105;-73
2022/02/24 01:01:04;;;;;;;11.00;3.75;;;;;;;8.22;60.16;99653.31;5010088;28;20479;-74
2022/02/24 01:03:30;;;;;;;11.45;3.95;;;;;;;8.23;60.00;99660.28;5009916;28;20045;-74
2022/02/24 01:05:55;;;;;;;4.43;2.60;;;;;;;8.24;60.09;99647.06;5010607;28;20045;-74
2022/02/24 01:08:21;;;;;;;8.18;2.90;;;;;;;8.24;60.34;99641.81;5011934;28;20034;-74
2022/02/24 01:10:47;;;;;;;10.68;3.75;;;;;;;8.27;60.00;99638.22;5013768;28;20403;-74
2022/02/24 01:13:12;;;;;;;10.88;3.60;;;;;;;8.30;59.96;99636.31;5016598;28;20044;-74
2022/02/24 01:15:38;;;;;;;7.60;3.03;;;;;;;8.35;60.08;99636.13;5012808;28;20125;-74
2022/02/24 01:18:07;;;;;;;9.05;3.05;;;;;;;8.34;59.64;99635.28;5017801;28;20038;-74
2022/02/24 01:20:32;;;;;;;5.15;2.65;;;;;;;8.34;59.78;99637.91;5009260;28;20519;-74
2022/02/24 01:22:57;;;;;;;7.65;3.05;;;;;;;8.34;60.24;99643.16;5010496;28;20093;-73
2022/02/24 01:25:23;;;;;;;10.20;3.95;;;;;;;8.29;59.64;99634.59;4992164;28;20030;-73
2022/02/24 01:27:48;;;;;;;7.38;2.72;;;;;;;8.31;60.10;99627.50;5009654;28;20112;-73
2022/02/24 01:30:14;;;;;;;7.57;2.53;;;;;;;8.34;59.73;99630.03;5009383;28;20496;-73
2022/02/24 01:32:39;;;;;;;10.38;3.40;;;;;;;8.35;59.53;99628.25;5010068;28;20138;-73
2022/02/24 01:35:05;;;;;;;8.75;3.28;;;;;;;8.35;60.02;99633.50;5010036;28;20135;-73
2022/02/24 01:37:30;;;;;;;4.47;2.58;;;;;;;8.34;59.93;99622.16;5009889;28;20068;-74
2022/02/24 01:39:56;;;;;;;8.43;2.80;;;;;;;8.32;59.96;99624.00;5008583;28;20038;-73
2022/02/24 01:42:21;;;;;;;8.57;3.47;;;;;;;8.34;60.23;99611.66;5014118;28;20044;-72
2022/02/24 01:44:47;;;;;;;12.65;2.95;;;;;;;8.35;59.33;99615.13;5015792;28;20061;-73
2022/02/24 01:47:13;;;;;;;10.00;3.42;;;;;;;8.38;59.85;99615.81;5014890;28;20403;-74
2022/02/24 01:49:39;;;;;;;7.30;2.70;;;;;;;8.40;59.65;99613.19;5008665;28;20038;-73
2022/02/24 01:52:07;;;;;;;7.32;3.13;;;;;;;8.45;59.73;99607.72;5007229;28;20033;-73
2022/02/24 01:54:34;;;;;;;8.05;3.88;;;;;;;8.43;59.87;99599.06;5009176;28;20411;-74
2022/02/24 01:57:00;;;;;;;10.48;3.05;;;;;;;8.43;59.59;99607.78;5008832;28;20034;-74
2022/02/24 01:59:27;;;;;;;7.25;3.03;;;;;;;8.41;59.68;99596.47;5011695;28;20180;-73
2022/02/24 02:01:52;;;;;;;6.95;3.30;;;;;;;8.38;60.04;99586.94;4989268;28;20030;-72
2022/02/24 02:04:18;;;;;;;8.60;3.17;;;;;;;8.43;59.45;99586.78;5024509;28;20037;-73
2022/02/24 02:06:43;;;;;;;8.02;2.80;;;;;;;8.46;59.64;99577.91;5022128;28;20044;-73
2022/02/24 02:09:10;;;;;;;9.57;2.72;;;;;;;8.43;59.22;99576.25;5009457;28;20037;-73
2022/02/24 02:11:36;;;;;;;11.98;3.30;;;;;;;8.42;59.48;99578.94;5009083;28;20037;-73
2022/02/24 02:14:02;;;;;;;8.38;3.22;;;;;;;8.41;59.79;99569.38;5009364;28;20479;-75
2022/02/24 02:16:27;;;;;;;10.82;4.20;;;;;;;8.38;60.28;99570.31;5008724;28;20491;-75
2022/02/24 02:18:52;;;;;;;6.97;2.33;;;;;;;8.41;60.15;99569.38;5009835;28;20045;-74
2022/02/24 02:21:18;;;;;;;6.90;2.60;;;;;;;8.45;59.92;99563.91;5008951;28;20038;-74
2022/02/24 02:23:43;;;;;;;7.72;3.53;;;;;;;8.42;60.13;99557.94;5009248;28;20037;-74
2022/02/24 02:26:09;;;;;;;10.75;2.90;;;;;;;8.44;60.09;99561.34;5007882;28;20045;-74
2022/02/24 02:28:34;;;;;;;11.32;2.95;;;;;;;8.44;60.09;99558.72;5012192;28;20045;-75
2022/02/24 02:30:59;;;;;;;7.63;2.67;;;;;;;8.41;59.40;99548.34;5013189;28;20081;-75
2022/02/24 02:33:25;;;;;;;9.00;2.47;;;;;;;8.44;59.79;99548.22;5017308;28;20042;-74
2022/02/24 02:35:50;;;;;;;10.43;3.60;;;;;;;8.38;60.04;99544.91;5017796;28;20038;-75
2022/02/24 02:38:16;;;;;;;5.82;2.90;;;;;;;8.42;59.96;99539.53;5016125;28;20446;-75
2022/02/24 02:40:41;;;;;;;6.47;2.53;;;;;;;8.43;59.90;99533.38;5018826;28;20068;-75
2022/02/24 02:43:08;;;;;;;15.82;4.53;;;;;;;8.43;59.61;99525.50;5017218;28;20072;-75
2022/02/24 02:45:34;;;;;;;8.88;3.03;;;;;;;8.39;60.42;99527.38;5014844;28;20426;-75
2022/02/24 02:48:01;;;;;;;12.77;3.45;;;;;;;8.38;60.22;99528.31;5015470;28;20038;-75
2022/02/24 02:50:27;;;;;;;6.20;2.53;;;;;;;8.36;60.60;99520.47;5016537;28;20042;-75
2022/02/24 02:52:53;;;;;;;8.77;2.97;;;;;;;8.36;60.58;99517.00;5017390;28;20042;-75
2022/02/24 02:55:19;;;;;;;6.88;2.58;;;;;;;8.36;60.80;99517.00;5016069;28;20041;-75
2022/02/24 02:57:44;;;;;;;8.32;2.90;;;;;;;8.37;60.40;99510.84;5017498;28;20030;-75
2022/02/24 03:00:12;;;;;;;10.25;2.40;;;;;;;8.37;60.52;99511.69;5015593;28;20093;-74
2022/02/24 03:02:38;;;;;;;11.02;3.03;;;;;;;8.37;60.64;99503.81;5015413;28;20049;-74
2022/02/24 03:05:05;;;;;;;5.80;2.88;;;;;;;8.32;60.44;99502.31;5013860;28;20030;-75
2022/02/24 03:07:30;;;;;;;10.50;3.25;;;;;;;8.31;61.28;99495.34;5013717;28;20089;-74
2022/02/24 03:09:55;;;;;;;6.63;2.83;;;;;;;8.31;61.27;99495.34;5014048;28;20172;-75
2022/02/24 03:12:21;;;;;;;10.20;4.03;;;;;;;8.29;60.91;99489.31;5012589;28;20042;-75
2022/02/24 03:14:46;;;;;;;8.23;2.72;;;;;;;8.30;61.17;99483.16;5013148;28;20042;-75
2022/02/24 03:17:12;;;;;;;5.93;2.25;;;;;;;8.30;61.13;99488.41;5013333;28;20040;-75
2022/02/24 03:19:38;;;;;;;8.60;2.75;;;;;;;8.30;60.47;99476.13;5016732;28;20027;-74
2022/02/24 03:22:07;;;;;;;8.07;3.20;;;;;;;8.28;61.15;99479.72;5015458;28;20057;-74
2022/02/24 03:24:33;;;;;;;6.60;2.92;;;;;;;8.26;61.11;99479.78;5013631;28;20113;-75
2022/02/24 03:26:58;;;;;;;7.93;3.22;;;;;;;8.30;61.29;99478.75;5013825;28;20112;-74
2022/02/24 03:29:23;;;;;;;8.98;2.30;;;;;;;8.31;60.92;99474.34;5011567;28;20066;-73
2022/02/24 03:31:49;;;;;;;8.23;3.05;;;;;;;8.31;60.97;99469.94;5011872;28;20050;-74
2022/02/24 03:34:14;;;;;;;6.43;3.55;;;;;;;8.31;60.61;99466.47;5012098;28;20084;-74
2022/02/24 03:36:40;;;;;;;11.10;3.83;;;;;;;8.31;61.09;99464.69;5011449;28;20038;-73
2022/02/24 03:39:06;;;;;;;10.48;3.03;;;;;;;8.31;61.00;99463.81;5012135;28;20121;-73
2022/02/24 03:41:31;;;;;;;12.75;3.30;;;;;;;8.29;61.71;99466.50;5013001;28;20045;-75
2022/02/24 03:43:57;;;;;;;6.82;2.60;;;;;;;8.32;61.59;99461.16;5011607;28;20037;-74
2022/02/24 03:46:22;;;;;;;7.20;2.85;;;;;;;8.33;61.60;99456.75;5010292;28;20037;-74
2022/02/24 03:48:49;;;;;;;9.40;2.63;;;;;;;8.32;61.87;99460.31;5011783;28;20041;-76
2022/02/24 03:51:15;;;;;;;7.15;3.72;;;;;;;8.30;61.62;99455.09;5009197;28;20575;-74
2022/02/24 03:53:41;;;;;;;9.35;3.28;;;;;;;8.28;62.25;99454.31;5011639;28;20033;-75
2022/02/24 03:56:06;;;;;;;6.68;3.13;;;;;;;8.32;61.91;99457.69;5011524;28;20036;-75
2022/02/24 03:58:32;;;;;;;9.25;4.03;;;;;;;8.32;62.19;99457.69;5012096;28;20038;-75
2022/02/24 04:00:57;;;;;;;18.88;4.05;;;;;;;8.28;62.34;99454.31;5011952;28;20053;-76
2022/02/24 04:03:23;;;;;;;16.40;3.20;;;;;;;8.31;62.62;99453.31;5011162;28;20040;-74
2022/02/24 04:05:49;;;;;;;15.05;4.82;;;;;;;8.31;62.61;99442.81;5011375;28;20045;-73
2022/02/24 04:08:14;;;;;;;9.20;3.47;;;;;;;8.28;62.89;99446.44;5011922;28;20091;-74
2022/02/24 04:10:39;;;;;;;7.13;3.78;;;;;;;8.28;62.85;99446.44;5011681;28;20050;-76
2022/02/24 04:13:05;;;;;;;5.43;2.78;;;;;;;8.31;63.33;99442.81;5011388;28;20124;-74
2022/02/24 04:15:30;;;;;;;7.63;3.55;;;;;;;8.29;63.42;99440.25;5009536;28;20066;-75
2022/02/24 04:17:55;;;;;;;8.15;3.28;;;;;;;8.25;63.70;99436.09;5011691;28;20042;-75
2022/02/24 04:20:21;;;;;;;12.07;3.63;;;;;;;8.24;63.07;99430.88;5011363;28;20502;-76
2022/02/24 04:22:46;;;;;;;11.50;3.53;;;;;;;8.23;63.53;99435.28;5010300;28;20049;-74
2022/02/24 04:25:11;;;;;;;11.63;3.40;;;;;;;8.26;63.37;99416.75;5011523;28;20120;-75
2022/02/24 04:27:45;;;;;;;18.50;2.92;;;;;;;8.25;63.00;99412.44;5011673;28;20111;-75
2022/02/24 04:30:11;;;;;;;11.15;3.13;;;;;;;8.23;63.17;99401.16;5010679;28;20026;-74
2022/02/24 04:32:36;;;;;;;6.20;3.35;;;;;;;8.22;63.63;99399.47;5010539;28;20060;-75
2022/02/24 04:35:02;;;;;;;8.05;3.72;;;;;;;8.21;63.58;99378.50;5010642;28;20034;-74
2022/02/24 04:37:27;;;;;;;7.68;3.13;;;;;;;8.21;63.51;99383.75;5009754;28;20495;-73
2022/02/24 04:39:52;;;;;;;5.93;3.55;;;;;;;8.21;62.89;99363.59;5010776;28;20038;-74
2022/02/24 04:42:18;;;;;;;7.72;2.70;;;;;;;8.21;63.09;99363.59;5009350;28;20041;-75
2022/02/24 04:44:43;;;;;;;9.95;2.88;;;;;;;8.20;62.26;99361.06;5011194;28;20113;-75
2022/02/24 04:47:08;;;;;;;10.73;3.25;;;;;;;8.22;62.54;99359.19;5010906;28;20034;-74
2022/02/24 04:49:34;;;;;;;13.48;3.28;;;;;;;8.20;63.01;99355.81;5010700;28;20037;-75
2022/02/24 04:51:59;;;;;;;10.20;3.05;;;;;;;8.20;62.69;99346.16;5008722;28;20058;-75
2022/02/24 04:54:24;;;;;;;6.68;2.92;;;;;;;8.15;63.09;99342.91;5010779;28;20050;-73
2022/02/24 04:56:50;;;;;;;6.38;3.55;;;;;;;8.20;63.19;99346.16;5007598;28;20040;-74
2022/02/24 04:59:15;;;;;;;5.28;2.70;;;;;;;8.20;63.07;99343.53;5001883;28;20045;-74
2022/02/24 05:01:40;;;;;;;9.38;2.90;;;;;;;8.16;63.24;99331.47;5009993;28;20088;-75
2022/02/24 05:04:06;;;;;;;9.48;2.45;;;;;;;8.14;63.17;99336.78;5009054;28;20088;-75
2022/02/24 05:06:31;;;;;;;5.72;2.67;;;;;;;8.13;63.17;99339.50;5010375;28;20036;-75
2022/02/24 05:08:57;;;;;;;5.63;3.00;;;;;;;8.10;62.94;99334.38;5009962;28;20045;-76
2022/02/24 05:11:22;;;;;;;12.85;3.97;;;;;;;8.06;63.24;99331.03;5010007;28;20137;-74
2022/02/24 05:13:47;;;;;;;8.27;2.78;;;;;;;8.08;62.79;99329.19;4993714;28;20042;-74
2022/02/24 05:16:13;;;;;;;5.45;2.85;;;;;;;8.08;62.92;99325.72;4992307;28;20047;-72
2022/02/24 05:18:38;;;;;;;10.00;2.63;;;;;;;8.08;63.14;99323.09;5002558;28;20065;-74
2022/02/24 05:21:03;;;;;;;8.88;2.47;;;;;;;8.08;62.79;99316.06;4996783;28;20057;-75
2022/02/24 05:23:29;;;;;;;5.80;2.33;;;;;;;8.09;62.56;99324.78;4991937;28;20037;-75
2022/02/24 05:25:54;;;;;;;8.20;3.22;;;;;;;8.11;62.50;99320.31;5008581;28;20033;-73
2022/02/24 05:28:19;;;;;;;10.43;2.97;;;;;;;8.12;62.50;99314.13;5009718;28;20065;-73
2022/02/24 05:30:45;;;;;;;6.30;2.78;;;;;;;8.14;62.52;99320.16;5008351;28;20125;-73
2022/02/24 05:33:10;;;;;;;4.63;2.53;;;;;;;8.13;62.72;99307.97;5010714;28;20422;-74
2022/02/24 05:35:36;;;;;;;6.18;2.47;;;;;;;8.13;62.45;99302.72;5010029;28;20037;-74
2022/02/24 05:38:02;;;;;;;7.88;2.55;;;;;;;8.11;62.34;99305.41;5010793;28;20125;-74
2022/02/24 05:40:27;;;;;;;6.60;3.03;;;;;;;8.08;62.73;99295.06;5010231;28;20041;-74
2022/02/24 05:42:53;;;;;;;6.10;2.28;;;;;;;8.08;62.70;99307.34;5010823;28;20114;-75
2022/02/24 05:45:18;;;;;;;6.75;3.05;;;;;;;8.06;62.48;99303.94;5014729;28;21132;-73
2022/02/24 05:47:43;;;;;;;4.60;2.40;;;;;;;8.05;62.57;99289.09;5012273;28;20588;-73
2022/02/24 05:50:09;;;;;;;8.63;2.60;;;;;;;8.05;63.10;99294.34;5009725;28;20046;-74
2022/02/24 05:52:36;;;;;;;7.07;3.38;;;;;;;8.06;63.02;99293.44;5009553;28;20033;-74
2022/02/24 05:55:02;;;;;;;6.90;2.22;;;;;;;8.05;62.81;99289.97;5008277;28;20506;-74
2022/02/24 05:57:27;;;;;;;7.43;2.50;;;;;;;8.03;63.04;99285.72;5009708;28;20450;-73
2022/02/24 05:59:53;;;;;;;7.22;2.95;;;;;;;8.02;63.11;99284.00;5007902;28;20109;-76
2022/02/24 06:02:18;;;;;;;6.63;3.25;;;;;;;8.03;62.92;99285.72;5007330;28;20033;-75
2022/02/24 06:04:47;;;;;;;9.32;2.92;;;;;;;8.06;63.26;99290.81;5009520;28;20038;-74
2022/02/24 06:07:12;;;;;;;8.43;3.20;;;;;;;8.06;62.83;99285.56;5008054;28;20500;-74
2022/02/24 06:09:37;;;;;;;11.25;3.03;;;;;;;8.04;63.22;99282.16;5009438;28;20117;-74
2022/02/24 06:12:03;;;;;;;5.40;2.42;;;;;;;8.03;62.95;99285.72;5008386;28;20065;-75
2022/02/24 06:14:28;;;;;;;6.55;2.17;;;;;;;8.02;62.95;99284.00;5008057;28;20124;-74
2022/02/24 06:16:54;;;;;;;8.35;3.25;;;;;;;8.04;63.27;99287.41;5010297;28;22604;-76
2022/02/24 06:19:19;;;;;;;14.00;3.00;;;;;;;8.03;63.34;99281.31;5013577;28;20035;-74
2022/02/24 06:21:47;;;;;;;7.57;3.25;;;;;;;8.05;63.35;99281.22;5014328;28;20050;-74
2022/02/24 06:24:12;;;;;;;7.30;3.22;;;;;;;8.06;63.33;99275.06;5012607;28;20026;-74
2022/02/24 06:26:37;;;;;;;12.10;3.03;;;;;;;8.05;63.43;99275.97;5013144;28;20092;-74
2022/02/24 06:29:03;;;;;;;13.70;3.20;;;;;;;8.06;63.47;99283.78;5012894;28;20026;-73
2022/02/24 06:31:34;;;;;;;9.75;3.45;;;;;;;8.07;63.67;99275.00;5007707;28;20057;-74
2022/02/24 06:34:00;;;;;;;8.02;3.63;;;;;;;8.08;62.98;99274.06;5014268;28;20108;-74
2022/02/24 06:36:25;;;;;;;7.88;3.35;;;;;;;8.08;63.43;99278.47;5012402;28;20042;-74
2022/02/24 06:38:52;;;;;;;8.88;3.40;;;;;;;8.09;63.54;99275.75;5010026;28;20030;-75
2022/02/24 06:41:18;;;;;;;9.00;3.03;;;;;;;8.09;63.64;99270.50;5008503;28;20539;-74
2022/02/24 06:43:44;;;;;;;10.48;3.47;;;;;;;8.10;63.36;99274.00;5008390;28;20502;-73
2022/02/24 06:46:09;;;;;;;8.48;2.97;;;;;;;8.10;63.28;99263.50;5008663;28;20087;-75
2022/02/24 06:48:34;;;;;;;8.52;4.45;;;;;;;8.12;63.26;99266.88;5008307;28;20065;-74
2022/02/24 06:51:00;;;;;;;10.50;3.20;;;;;;;8.12;62.96;99265.13;5007258;28;20038;-74
2022/02/24 06:53:25;;;;;;;8.50;2.47;;;;;;;8.12;63.02;99265.13;5007592;28;20121;-75
2022/02/24 06:55:51;;;;;;;14.05;3.42;;;;;;;8.13;63.67;99256.31;5009107;28;20045;-75
2022/02/24 06:58:16;;;;;;;12.65;3.33;;;;;;;8.13;63.43;99256.31;5007757;28;20411;-75
2022/02/24 07:00:41;;;;;;;6.45;2.40;;;;;;;8.12;63.12;99253.75;5008821;28;20517;-74
2022/02/24 07:03:07;;;;;;;8.55;2.92;;;;;;;8.13;62.99;99252.84;5007609;28;20033;-74
2022/02/24 07:05:32;;;;;;;15.05;3.90;;;;;;;8.11;63.61;99250.28;5009117;28;20042;-74
2022/02/24 07:07:58;;;;;;;7.82;2.35;;;;;;;8.11;63.53;99241.56;5007089;28;20138;-74
2022/02/24 07:10:23;;;;;;;4.90;2.65;;;;;;;8.11;63.42;99244.19;5008289;28;20399;-75
2022/02/24 07:12:49;;;;;;;6.72;2.80;;;;;;;8.12;63.78;99243.25;5008603;28;20037;-74
2022/02/24 07:15:15;;;;;;;7.57;2.97;;;;;;;8.15;63.25;99241.34;4993023;28;20491;-74
2022/02/24 07:17:42;;;;;;;6.43;2.85;;;;;;;8.13;63.28;99235.31;5007109;28;20541;-74
2022/02/24 07:20:09;;;;;;;11.55;3.92;;;;;;;8.16;63.54;99235.16;5011342;28;20034;-74
2022/02/24 07:22:35;;;;;;;8.57;3.00;;;;;;;8.21;63.74;99234.94;5012621;28;20080;-74
2022/02/24 07:25:00;;;;;;;9.70;2.90;;;;;;;8.20;63.26;99229.78;5011711;28;20559;-73
2022/02/24 07:27:25;;;;;;;7.53;2.97;;;;;;;8.19;63.34;99226.28;5011700;28;20042;-74
2022/02/24 07:29:51;;;;;;;11.00;3.25;;;;;;;8.18;63.37;99235.09;5011315;28;20070;-74
2022/02/24 07:32:16;;;;;;;7.53;3.10;;;;;;;8.20;63.91;99227.16;5010386;28;20030;-74
2022/02/24 07:34:41;;;;;;;12.38;3.80;;;;;;;8.21;64.29;99216.56;5012303;28;20030;-73
2022/02/24 07:37:07;;;;;;;8.57;2.53;;;;;;;8.24;65.07;99218.19;4993500;28;20065;-74
2022/02/24 07:39:32;;;;;;;7.88;2.92;;;;;;;8.20;64.81;99214.88;5009724;28;20117;-74
2022/02/24 07:41:58;;;;;;;10.63;2.90;;;;;;;8.16;64.68;99221.19;5010061;28;20026;-74
2022/02/24 07:44:23;;;;;;;10.70;3.28;;;;;;;8.13;65.84;99216.94;5010952;28;20070;-75
2022/02/24 07:46:49;;;;;;;9.13;3.13;;;;;;;8.14;66.07;99217.78;5008220;28;20136;-73
2022/02/24 07:49:17;;;;;;;11.57;3.55;;;;;;;8.11;66.08;99200.41;5004566;28;20030;-73
2022/02/24 07:51:47;;;;;;;10.15;2.58;;;;;;;8.13;66.63;99202.97;5010164;28;20113;-73
2022/02/24 07:54:12;;;;;;;7.60;2.78;;;;;;;8.13;66.84;99205.59;5011206;28;20045;-74
2022/02/24 07:56:37;;;;;;;12.40;2.88;;;;;;;8.10;66.92;99193.47;5009564;28;20041;-74
2022/02/24 07:59:03;;;;;;;11.52;3.72;;;;;;;8.08;66.88;99194.47;5012915;28;20495;-73
2022/02/24 08:01:28;;;;;;;7.30;3.20;;;;;;;8.01;68.10;99193.91;5000140;28;20045;-73
2022/02/24 08:03:55;;;;;;;10.55;3.58;;;;;;;7.98;68.20;99195.84;4992403;28;20451;-74
2022/02/24 08:06:20;;;;;;;17.52;4.22;;;;;;;7.93;68.19;99186.41;4994585;28;20030;-74
2022/02/24 08:08:46;;;;;;;9.77;3.33;;;;;;;7.87;68.74;99183.22;4995494;28;20034;-74
2022/02/24 08:11:13;;;;;;;12.15;3.40;;;;;;;7.85;68.91;99180.69;4992724;28;20480;-74
2022/02/24 08:13:38;;;;;;;11.65;2.97;;;;;;;7.87;69.28;99181.44;4988658;28;20483;-74
2022/02/24 08:16:04;;;;;;;8.05;2.85;;;;;;;7.81;69.50;99186.97;4995594;28;20038;-75
2022/02/24 08:18:29;;;;;;;10.27;3.50;;;;;;;7.82;68.89;99175.56;4994730;28;20030;-73
2022/02/24 08:20:55;;;;;;;12.52;4.13;;;;;;;7.91;69.75;99176.91;4990312;28;20119;-73
2022/02/24 08:23:20;;;;;;;10.00;4.40;;;;;;;7.94;69.30;99172.34;4991879;28;20114;-74
2022/02/24 08:25:46;;;;;;;7.68;3.42;;;;;;;7.98;69.16;99170.44;4990853;28;20030;-74
2022/02/24 08:28:11;;;;;;;9.18;3.70;;;;;;;8.00;69.26;99175.59;4991443;28;20046;-72
2022/02/24 08:30:37;;;;;;;20.67;4.10;;;;;;;8.03;69.27;99170.22;4989152;28;20042;-73
2022/02/24 08:33:03;;;;;;;10.38;3.97;;;;;;;8.08;69.19;99160.34;4991692;28;20038;-74
2022/02/24 08:35:28;;;;;;;11.43;4.00;;;;;;;8.09;69.07;99167.28;4991331;28;20034;-76
2022/02/24 08:37:54;;;;;;;11.50;4.93;;;;;;;8.07;68.98;99169.13;4991293;28;20396;-75
2022/02/24 08:40:21;;;;;;;18.00;5.65;;;;;;;8.10;69.03;99166.38;4998171;28;20515;-74
2022/02/24 08:42:48;;;;;;;13.75;4.32;;;;;;;8.09;69.89;99160.25;4999491;28;20033;-74
2022/02/24 08:45:13;;;;;;;13.65;4.50;;;;;;;8.05;69.63;99161.34;5000636;28;20034;-73
2022/02/24 08:47:40;;;;;;;11.55;4.88;;;;;;;8.05;70.94;99160.47;4997678;28;20037;-74
2022/02/24 08:50:08;;;;;;;15.48;5.75;;;;;;;8.03;71.73;99163.19;4987628;28;20053;-75
2022/02/24 08:52:33;;;;;;;28.60;7.57;;;;;;;8.00;72.07;99160.72;4991433;28;20033;-70
2022/02/24 08:54:59;;;;;;;11.02;4.72;;;;;;;7.88;73.04;99159.53;4991931;28;20121;-70
2022/02/24 08:57:24;;;;;;;19.20;5.35;;;;;;;7.82;73.97;99153.72;4992528;28;20037;-69
2022/02/24 08:59:51;;;;;;;12.45;5.00;;;;;;;7.78;74.31;99158.28;5011335;28;20427;-69
2022/02/24 09:02:16;;;;;;;14.18;5.25;;;;;;;7.68;75.47;99162.25;5008434;28;20053;-68
2022/02/24 09:04:42;;;;;;;13.63;5.55;;;;;;;7.62;76.51;99165.16;5010094;28;20121;-68
2022/02/24 09:07:07;;;;;;;15.65;7.22;;;;;;;7.50;77.46;99154.31;5012066;28;20068;-69
2022/02/24 09:09:33;;;;;;;15.57;6.22;;;;;;;7.40;78.22;99147.81;5030296;28;20061;-69
2022/02/24 09:11:59;;;;;;;11.60;6.03;;;;;;;7.36;78.65;99130.53;5029090;28;20029;-69
2022/02/24 09:14:24;;;;;;;18.05;6.28;;;;;;;7.31;79.33;99132.53;5031378;28;20116;-69
2022/02/24 09:16:49;;;;;;;12.27;6.45;;;;;;;7.31;79.27;99130.75;5031321;28;20120;-70
2022/02/24 09:19:15;;;;;;;11.82;6.07;;;;;;;7.31;78.93;99122.88;5033263;28;20120;-68
2022/02/24 09:21:41;;;;;;;14.20;5.57;;;;;;;7.36;79.12;99108.69;4975779;28;20073;-69
2022/02/24 09:24:07;;;;;;;12.70;7.25;;;;;;;7.37;78.77;99100.75;5007551;28;20068;-70
2022/02/24 09:26:36;;;;;;;18.75;6.63;;;;;;;7.45;78.21;99090.72;5007444;28;20053;-69
2022/02/24 09:29:03;;;;;;;13.23;5.43;;;;;;;7.51;78.62;99084.38;4978139;28;20046;-68
2022/02/24 09:31:28;;;;;;;14.85;6.78;;;;;;;7.55;77.40;99064.91;4992933;28;20140;-73
2022/02/24 09:33:54;;;;;;;11.38;6.00;;;;;;;7.53;76.48;99065.00;4995694;28;20705;-73
2022/02/24 09:36:20;;;;;;;14.38;5.63;;;;;;;7.67;76.39;99061.69;4973647;28;20040;-73
2022/02/24 09:38:51;;;;;;;13.77;6.90;;;;;;;7.78;76.46;99052.44;4981359;28;20049;-74
2022/02/24 09:41:18;;;;;;;14.35;5.88;;;;;;;7.84;75.96;99052.16;4979549;28;20044;-73
2022/02/24 09:43:45;;;;;;;13.82;5.80;;;;;;;7.87;75.29;99044.97;5002427;28;20041;-72
2022/02/24 09:46:12;;;;;;;14.60;5.53;;;;;;;7.93;75.31;99035.97;4990929;28;20065;-72
2022/02/24 09:48:44;;;;;;;11.02;4.75;;;;;;;8.01;74.79;99038.19;5005843;28;20034;-73
2022/02/24 09:51:15;;;;;;;15.15;6.65;;;;;;;8.13;74.59;99040.19;5016800;28;20048;-72
2022/02/24 09:53:42;;;;;;;12.73;4.90;;;;;;;8.21;75.30;99040.63;5015645;28;20586;-74
2022/02/24 09:56:17;;;;;;;8.75;5.07;;;;;;;8.28;74.85;99031.50;5008079;28;20531;-74
2022/02/24 09:58:43;;;;;;;10.52;4.60;;;;;;;8.37;74.30;99017.06;5009010;28;20044;-72
2022/02/24 10:01:12;;;;;;;12.25;5.35;;;;;;;8.45;73.82;99012.28;4990205;28;20026;-73
2022/02/24 10:03:45;;;;;;;10.80;5.10;;;;;;;8.68;73.33;99018.09;5007560;28;20034;-74
2022/02/24 10:06:12;;;;;;;10.52;5.95;;;;;;;9.08;71.10;98993.09;5009024;28;20446;-74
2022/02/24 10:08:43;;;;;;;15.95;6.97;;;;;;;10.85;65.41;98998.44;5007215;28;20052;-74
2022/02/24 10:11:25;;;;;;;13.73;6.50;;;;;;;12.19;61.13;98993.19;5003318;28;20363;-74
2022/02/24 10:14:21;;;;;;;11.73;4.72;;;;;;;13.17;57.19;98977.47;5007262;28;20482;-73
2022/02/24 10:17:15;;;;;;;8.27;4.57;;;;;;;13.59;56.42;98983.25;4989729;28;20121;-74
2022/02/24 10:19:48;;;;;;;14.40;4.90;;;;;;;13.67;54.61;98971.13;4999887;28;20040;-74
2022/02/24 10:22:19;;;;;;;7.82;4.07;;;;;;;14.37;52.93;98954.28;5008896;28;20029;-75
2022/02/24 10:24:53;;;;;;;9.77;4.60;;;;;;;15.24;50.33;98965.03;5007777;28;20034;-73
2022/02/24 10:27:27;;;;;;;6.40;3.72;;;;;;;15.69;48.00;98956.03;5004622;28;20034;-76
2022/02/24 10:30:01;;;;;;;7.20;4.30;;;;;;;15.60;47.77;98960.34;5008564;28;20049;-75
2022/02/24 10:32:43;;;;;;;9.40;4.97;;;;;;;15.07;49.77;98965.56;5008853;28;20045;-74
2022/02/24 10:35:28;;;;;;;10.55;4.97;;;;;;;13.67;51.80;98963.16;5007836;28;20026;-73
2022/02/24 10:37:58;;;;;;;16.15;4.28;;;;;;;12.80;55.00;98966.91;5007277;28;20113;-74
2022/02/24 10:40:27;;;;;;;9.35;4.20;;;;;;;12.15;56.88;98976.69;5007359;28;20042;-74
2022/02/24 10:42:52;;;;;;;12.27;4.63;;;;;;;11.72;57.38;98965.53;4991200;28;20037;-75
2022/02/24 10:45:18;;;;;;;12.25;4.60;;;;;;;11.25;58.72;98965.09;5009389;28;20038;-74
2022/02/24 10:47:56;;;;;;;10.27;4.53;;;;;;;10.96;60.02;98964.34;5004648;28;20049;-75
2022/02/24 10:50:44;;;;;;;7.55;4.20;;;;;;;10.65;60.12;98962.78;5010902;28;20434;-73
2022/02/24 10:53:09;;;;;;;10.73;4.90;;;;;;;10.41;61.04;98960.75;5010661;28;20388;-74
2022/02/24 10:56:09;;;;;;;7.60;3.92;;;;;;;10.23;60.68;98952.16;5014052;28;20057;-74
2022/02/24 10:58:45;;;;;;;7.72;3.42;;;;;;;10.11;61.16;98945.00;5012978;28;20034;-74
2022/02/24 11:01:12;;;;;;;8.75;4.45;;;;;;;10.00;61.42;98935.13;5013735;28;20165;-74
2022/02/24 11:03:40;;;;;;;8.90;3.33;;;;;;;9.85;61.02;98936.06;5014328;28;20029;-74
2022/02/24 11:06:07;;;;;;;11.18;4.82;;;;;;;9.76;61.46;98926.91;5011227;28;20038;-74
2022/02/24 11:08:34;;;;;;;6.55;3.38;;;;;;;9.76;61.84;98936.59;5012803;28;20112;-76
2022/02/24 11:11:00;;;;;;;15.15;4.00;;;;;;;9.70;62.22;98919.38;5011050;28;20484;-74
2022/02/24 11:13:28;;;;;;;7.72;4.18;;;;;;;9.60;61.92;98932.25;5023229;28;20050;-74
2022/02/24 11:15:55;;;;;;;6.55;3.72;;;;;;;9.53;62.62;98919.53;5035464;28;20025;-74
2022/02/24 11:18:21;;;;;;;12.98;3.75;;;;;;;9.47;63.17;98899.69;5034015;28;20071;-75
2022/02/24 11:20:47;;;;;;;11.07;3.72;;;;;;;9.47;63.17;98902.31;5031568;28;20491;-74
2022/02/24 11:23:14;;;;;;;9.23;3.15;;;;;;;9.56;63.03;98893.03;5031375;28;20041;-75
2022/02/24 11:25:56;;;;;;;8.90;3.30;;;;;;;9.63;62.61;98887.31;5032226;28;20034;-75
2022/02/24 11:28:23;;;;;;;6.70;3.67;;;;;;;9.63;62.94;98876.78;5031107;28;20431;-74
2022/02/24 11:30:56;;;;;;;7.38;3.70;;;;;;;9.59;61.93;98863.91;5030312;28;20033;-75
2022/02/24 11:33:22;;;;;;;9.32;3.67;;;;;;;9.60;61.64;98868.25;5031699;28;20033;-74